sensor_id;sensor_type;location;lat;lon;timestamp;temperature;humidity
7192;DHT22;3637;51.494;11.958;2024-02-21T00:00:23;9.10;99.90
7192;DHT22;3637;51.494;11.958;2024-02-21T00:03:26;9.20;99.90
7192;DHT22;3637;51.494;11.958;2024-02-21T00:06:30;8.70;99.90
7192;DHT22;3637;51.494;11.958;2024-02-21T00:09:36;9.20;99.90
7192;DHT22;3637;51.494;11.958;2024-02-21T00:12:38;8.90;99.90
7192;DHT22;3637;51.494;11.958;2024-02-21T00:15:41;9.20;99.90
7192;DHT22;3637;51.494;11.958;2024-02-21T00:18:46;9.10;99.90
7192;DHT22;3637;51.494;11.958;2024-02-21T00:21:48;9.20;99.90
7192;DHT22;3637;51.494;11.958;2024-02-21T00:24:58;9.20;99.90
7192;DHT22;3637;51.494;11.958;2024-02-21T00:28:01;9.10;99.90
7192;DHT22;3637;51.494;11.958;2024-02-21T00:31:07;9.30;99.90
7192;DHT22;3637;51.494;11.958;2024-02-21T00:34:10;9.30;99.90
7192;DHT22;3637;51.494;11.958;2024-02-21T00:37:16;9.10;99.90
7192;DHT22;3637;51.494;11.958;2024-02-21T00:40:21;9.10;99.90
7192;DHT22;3637;51.494;11.958;2024-02-21T00:43:24;9.10;99.90
7192;DHT22;3637;51.494;11.958;2024-02-21T00:46:27;9.30;99.90
7192;DHT22;3637;51.494;11.958;2024-02-21T00:49:31;9.00;99.90
7192;DHT22;3637;51.494;11.958;2024-02-21T00:52:34;9.00;99.90
7192;DHT22;3637;51.494;11.958;2024-02-21T00:55:39;9.00;99.90
7192;DHT22;3637;51.494;11.958;2024-02-21T00:58:44;9.20;99.90
7192;DHT22;3637;51.494;11.958;2024-02-21T01:01:53;9.60;99.90
7192;DHT22;3637;51.494;11.958;2024-02-21T01:04:56;9.30;99.90
7192;DHT22;3637;51.494;11.958;2024-02-21T01:07:59;9.30;99.90
7192;DHT22;3637;51.494;11.958;2024-02-21T01:11:03;9.10;99.90
7192;DHT22;3637;51.494;11.958;2024-02-21T01:14:06;9.20;99.90
7192;DHT22;3637;51.494;11.958;2024-02-21T01:17:14;9.10;99.90
7192;DHT22;3637;51.494;11.958;2024-02-21T01:20:20;9.10;99.90
7192;DHT22;3637;51.494;11.958;2024-02-21T01:23:23;9.00;99.90
7192;DHT22;3637;51.494;11.958;2024-02-21T01:26:30;9.00;99.90
7192;DHT22;3637;51.494;11.958;2024-02-21T01:29:35;9.00;99.90
7192;DHT22;3637;51.494;11.958;2024-02-21T01:32:37;9.30;99.90
7192;DHT22;3637;51.494;11.958;2024-02-21T01:35:39;9.10;99.90
7192;DHT22;3637;51.494;11.958;2024-02-21T01:38:43;8.90;99.90
7192;DHT22;3637;51.494;11.958;2024-02-21T01:41:51;9.10;99.90
7192;DHT22;3637;51.494;11.958;2024-02-21T01:44:55;9.10;99.90
7192;DHT22;3637;51.494;11.958;2024-02-21T01:47:59;9.50;99.90
7192;DHT22;3637;51.494;11.958;2024-02-21T01:51:04;9.00;99.90
7192;DHT22;3637;51.494;11.958;2024-02-21T01:54:15;8.80;99.90
7192;DHT22;3637;51.494;11.958;2024-02-21T01:57:20;9.00;99.90
7192;DHT22;3637;51.494;11.958;2024-02-21T02:00:25;9.00;99.90
7192;DHT22;3637;51.494;11.958;2024-02-21T02:03:28;9.20;99.90
7192;DHT22;3637;51.494;11.958;2024-02-21T02:06:32;9.00;99.90
7192;DHT22;3637;51.494;11.958;2024-02-21T02:09:34;9.30;99.90
7192;DHT22;3637;51.494;11.958;2024-02-21T02:12:41;8.90;99.90
7192;DHT22;3637;51.494;11.958;2024-02-21T02:15:47;9.00;99.90
7192;DHT22;3637;51.494;11.958;2024-02-21T02:18:50;9.00;99.90
7192;DHT22;3637;51.494;11.958;2024-02-21T02:21:58;8.90;99.90
7192;DHT22;3637;51.494;11.958;2024-02-21T02:25:18;9.00;99.90
7192;DHT22;3637;51.494;11.958;2024-02-21T02:28:21;9.10;99.90
7192;DHT22;3637;51.494;11.958;2024-02-21T02:31:23;9.00;99.90
7192;DHT22;3637;51.494;11.958;2024-02-21T02:34:27;8.60;99.90
7192;DHT22;3637;51.494;11.958;2024-02-21T02:37:31;9.00;99.90
7192;DHT22;3637;51.494;11.958;2024-02-21T02:40:39;9.10;99.90
7192;DHT22;3637;51.494;11.958;2024-02-21T02:43:40;9.60;99.90
7192;DHT22;3637;51.494;11.958;2024-02-21T02:46:43;9.00;99.90
7192;DHT22;3637;51.494;11.958;2024-02-21T02:49:46;9.00;99.90
7192;DHT22;3637;51.494;11.958;2024-02-21T02:52:52;8.90;99.90
7192;DHT22;3637;51.494;11.958;2024-02-21T02:55:58;9.00;99.90
7192;DHT22;3637;51.494;11.958;2024-02-21T02:59:00;9.30;99.90
7192;DHT22;3637;51.494;11.958;2024-02-21T03:02:03;9.70;99.90
7192;DHT22;3637;51.494;11.958;2024-02-21T03:05:12;9.30;99.90
7192;DHT22;3637;51.494;11.958;2024-02-21T03:08:16;9.30;99.90
7192;DHT22;3637;51.494;11.958;2024-02-21T03:11:25;9.00;99.90
7192;DHT22;3637;51.494;11.958;2024-02-21T03:14:29;9.80;99.90
7192;DHT22;3637;51.494;11.958;2024-02-21T03:17:31;9.10;99.90
7192;DHT22;3637;51.494;11.958;2024-02-21T03:20:35;9.20;99.90
7192;DHT22;3637;51.494;11.958;2024-02-21T03:23:39;9.00;99.90
7192;DHT22;3637;51.494;11.958;2024-02-21T03:26:44;9.10;99.90
7192;DHT22;3637;51.494;11.958;2024-02-21T03:29:51;8.90;99.90
7192;DHT22;3637;51.494;11.958;2024-02-21T03:32:54;8.70;99.90
7192;DHT22;3637;51.494;11.958;2024-02-21T03:35:57;8.90;99.90
7192;DHT22;3637;51.494;11.958;2024-02-21T03:39:00;9.70;99.90
7192;DHT22;3637;51.494;11.958;2024-02-21T03:42:05;8.80;99.90
7192;DHT22;3637;51.494;11.958;2024-02-21T03:45:10;8.80;99.90
7192;DHT22;3637;51.494;11.958;2024-02-21T03:48:14;8.80;99.90
7192;DHT22;3637;51.494;11.958;2024-02-21T03:51:20;8.70;99.90
7192;DHT22;3637;51.494;11.958;2024-02-21T03:54:23;8.60;99.90
7192;DHT22;3637;51.494;11.958;2024-02-21T03:57:45;8.80;99.90
7192;DHT22;3637;51.494;11.958;2024-02-21T04:00:48;8.60;99.90
7192;DHT22;3637;51.494;11.958;2024-02-21T04:03:50;8.60;99.90
7192;DHT22;3637;51.494;11.958;2024-02-21T04:06:56;8.60;99.90
7192;DHT22;3637;51.494;11.958;2024-02-21T04:09:59;8.50;99.90
7192;DHT22;3637;51.494;11.958;2024-02-21T04:13:06;9.30;99.90
7192;DHT22;3637;51.494;11.958;2024-02-21T04:16:08;8.80;99.90
7192;DHT22;3637;51.494;11.958;2024-02-21T04:19:14;8.70;99.90
7192;DHT22;3637;51.494;11.958;2024-02-21T04:22:18;8.60;99.90
7192;DHT22;3637;51.494;11.958;2024-02-21T04:25:20;8.70;99.90
7192;DHT22;3637;51.494;11.958;2024-02-21T04:28:29;8.70;99.90
7192;DHT22;3637;51.494;11.958;2024-02-21T04:31:32;9.00;99.90
7192;DHT22;3637;51.494;11.958;2024-02-21T04:34:35;8.80;99.90
7192;DHT22;3637;51.494;11.958;2024-02-21T04:37:38;8.70;99.90
7192;DHT22;3637;51.494;11.958;2024-02-21T04:40:41;9.30;99.90
7192;DHT22;3637;51.494;11.958;2024-02-21T04:43:51;8.90;99.90
7192;DHT22;3637;51.494;11.958;2024-02-21T04:47:00;8.50;99.90
7192;DHT22;3637;51.494;11.958;2024-02-21T04:50:09;9.00;99.90
7192;DHT22;3637;51.494;11.958;2024-02-21T04:53:14;8.90;99.90
7192;DHT22;3637;51.494;11.958;2024-02-21T04:56:19;8.60;99.90
7192;DHT22;3637;51.494;11.958;2024-02-21T04:59:30;8.80;99.90
7192;DHT22;3637;51.494;11.958;2024-02-21T05:02:38;8.70;99.90
7192;DHT22;3637;51.494;11.958;2024-02-21T05:05:41;9.40;99.90
7192;DHT22;3637;51.494;11.958;2024-02-21T05:08:48;8.80;99.90
7192;DHT22;3637;51.494;11.958;2024-02-21T05:11:53;8.80;99.90
7192;DHT22;3637;51.494;11.958;2024-02-21T05:15:08;8.80;99.90
7192;DHT22;3637;51.494;11.958;2024-02-21T05:18:12;8.80;99.90
7192;DHT22;3637;51.494;11.958;2024-02-21T05:21:16;8.70;99.90
7192;DHT22;3637;51.494;11.958;2024-02-21T05:24:22;8.80;99.90
7192;DHT22;3637;51.494;11.958;2024-02-21T05:27:24;8.60;99.90
7192;DHT22;3637;51.494;11.958;2024-02-21T05:30:37;9.00;99.90
7192;DHT22;3637;51.494;11.958;2024-02-21T05:33:42;8.90;99.90
7192;DHT22;3637;51.494;11.958;2024-02-21T05:36:46;8.70;99.90
7192;DHT22;3637;51.494;11.958;2024-02-21T05:39:52;8.70;99.90
7192;DHT22;3637;51.494;11.958;2024-02-21T05:42:56;8.60;99.90
7192;DHT22;3637;51.494;11.958;2024-02-21T05:46:02;8.60;99.90
7192;DHT22;3637;51.494;11.958;2024-02-21T05:49:05;8.40;99.90
7192;DHT22;3637;51.494;11.958;2024-02-21T05:52:08;8.40;99.90
7192;DHT22;3637;51.494;11.958;2024-02-21T05:55:12;8.40;99.90
7192;DHT22;3637;51.494;11.958;2024-02-21T05:58:15;8.30;99.90
7192;DHT22;3637;51.494;11.958;2024-02-21T06:01:27;8.40;99.90
7192;DHT22;3637;51.494;11.958;2024-02-21T06:04:31;8.40;99.90
7192;DHT22;3637;51.494;11.958;2024-02-21T06:07:37;8.60;99.90
7192;DHT22;3637;51.494;11.958;2024-02-21T06:10:40;8.30;99.90
7192;DHT22;3637;51.494;11.958;2024-02-21T06:13:42;8.50;99.90
7192;DHT22;3637;51.494;11.958;2024-02-21T06:16:49;9.30;99.90
7192;DHT22;3637;51.494;11.958;2024-02-21T06:19:52;9.20;99.90
7192;DHT22;3637;51.494;11.958;2024-02-21T06:22:54;8.40;99.90
7192;DHT22;3637;51.494;11.958;2024-02-21T06:25:58;9.20;99.90
7192;DHT22;3637;51.494;11.958;2024-02-21T06:29:04;8.40;99.90
7192;DHT22;3637;51.494;11.958;2024-02-21T06:32:09;8.70;99.90
7192;DHT22;3637;51.494;11.958;2024-02-21T06:35:14;8.90;99.90
7192;DHT22;3637;51.494;11.958;2024-02-21T06:38:19;8.50;99.90
7192;DHT22;3637;51.494;11.958;2024-02-21T06:41:25;8.50;99.90
7192;DHT22;3637;51.494;11.958;2024-02-21T06:44:28;8.90;99.90
7192;DHT22;3637;51.494;11.958;2024-02-21T06:47:31;8.60;99.90
7192;DHT22;3637;51.494;11.958;2024-02-21T06:50:33;8.60;99.90
7192;DHT22;3637;51.494;11.958;2024-02-21T06:53:39;8.60;99.90
7192;DHT22;3637;51.494;11.958;2024-02-21T06:56:43;9.30;99.90
7192;DHT22;3637;51.494;11.958;2024-02-21T06:59:48;8.60;99.90
7192;DHT22;3637;51.494;11.958;2024-02-21T07:02:54;8.30;99.90
7192;DHT22;3637;51.494;11.958;2024-02-21T07:06:00;8.60;99.90
7192;DHT22;3637;51.494;11.958;2024-02-21T07:09:02;8.60;99.90
7192;DHT22;3637;51.494;11.958;2024-02-21T07:12:07;8.50;99.90
7192;DHT22;3637;51.494;11.958;2024-02-21T07:15:12;8.60;99.90
7192;DHT22;3637;51.494;11.958;2024-02-21T07:18:15;9.00;99.90
7192;DHT22;3637;51.494;11.958;2024-02-21T07:21:18;9.20;99.90
7192;DHT22;3637;51.494;11.958;2024-02-21T07:24:22;8.70;99.90
7192;DHT22;3637;51.494;11.958;2024-02-21T07:27:29;8.70;99.90
7192;DHT22;3637;51.494;11.958;2024-02-21T07:30:35;9.10;99.90
7192;DHT22;3637;51.494;11.958;2024-02-21T07:33:41;8.90;99.90
7192;DHT22;3637;51.494;11.958;2024-02-21T07:36:43;9.00;99.90
7192;DHT22;3637;51.494;11.958;2024-02-21T07:39:48;9.20;99.90
7192;DHT22;3637;51.494;11.958;2024-02-21T07:42:54;9.80;99.90
7192;DHT22;3637;51.494;11.958;2024-02-21T07:45:57;9.90;99.90
7192;DHT22;3637;51.494;11.958;2024-02-21T07:49:02;10.60;99.90
7192;DHT22;3637;51.494;11.958;2024-02-21T07:52:04;10.20;99.90
7192;DHT22;3637;51.494;11.958;2024-02-21T07:55:07;9.80;99.90
7192;DHT22;3637;51.494;11.958;2024-02-21T07:58:22;9.80;99.90
7192;DHT22;3637;51.494;11.958;2024-02-21T08:01:29;10.80;99.90
7192;DHT22;3637;51.494;11.958;2024-02-21T08:04:45;9.90;99.90
7192;DHT22;3637;51.494;11.958;2024-02-21T08:07:49;9.80;99.90
7192;DHT22;3637;51.494;11.958;2024-02-21T08:10:55;9.70;99.90
7192;DHT22;3637;51.494;11.958;2024-02-21T08:14:00;9.60;99.90
7192;DHT22;3637;51.494;11.958;2024-02-21T08:17:04;9.60;99.90
7192;DHT22;3637;51.494;11.958;2024-02-21T08:20:11;9.50;99.90
7192;DHT22;3637;51.494;11.958;2024-02-21T08:23:16;10.00;99.90
7192;DHT22;3637;51.494;11.958;2024-02-21T08:26:20;10.20;99.90
7192;DHT22;3637;51.494;11.958;2024-02-21T08:29:22;9.30;99.90
7192;DHT22;3637;51.494;11.958;2024-02-21T08:32:25;9.20;99.90
7192;DHT22;3637;51.494;11.958;2024-02-21T08:35:29;8.90;99.90
7192;DHT22;3637;51.494;11.958;2024-02-21T08:38:31;9.30;99.90
7192;DHT22;3637;51.494;11.958;2024-02-21T08:41:36;9.50;99.90
7192;DHT22;3637;51.494;11.958;2024-02-21T08:44:40;9.70;99.90
7192;DHT22;3637;51.494;11.958;2024-02-21T08:47:45;10.10;99.90
7192;DHT22;3637;51.494;11.958;2024-02-21T08:50:52;10.20;99.90
7192;DHT22;3637;51.494;11.958;2024-02-21T08:53:55;10.40;99.90
7192;DHT22;3637;51.494;11.958;2024-02-21T08:56:59;10.40;99.90
7192;DHT22;3637;51.494;11.958;2024-02-21T09:00:05;10.10;99.90
7192;DHT22;3637;51.494;11.958;2024-02-21T09:03:11;10.10;99.90
7192;DHT22;3637;51.494;11.958;2024-02-21T09:06:22;10.30;99.90
7192;DHT22;3637;51.494;11.958;2024-02-21T09:09:27;10.20;99.90
7192;DHT22;3637;51.494;11.958;2024-02-21T09:12:32;10.20;99.90
7192;DHT22;3637;51.494;11.958;2024-02-21T09:15:37;10.30;99.90
7192;DHT22;3637;51.494;11.958;2024-02-21T09:18:39;10.50;99.90
7192;DHT22;3637;51.494;11.958;2024-02-21T09:21:51;10.50;99.90
7192;DHT22;3637;51.494;11.958;2024-02-21T09:24:54;10.30;99.90
7192;DHT22;3637;51.494;11.958;2024-02-21T09:27:57;10.40;99.90
7192;DHT22;3637;51.494;11.958;2024-02-21T09:31:00;10.50;99.90
7192;DHT22;3637;51.494;11.958;2024-02-21T09:34:03;10.50;99.90
7192;DHT22;3637;51.494;11.958;2024-02-21T09:37:15;10.00;99.90
7192;DHT22;3637;51.494;11.958;2024-02-21T09:40:20;10.10;99.90
7192;DHT22;3637;51.494;11.958;2024-02-21T09:43:24;10.70;99.90
7192;DHT22;3637;51.494;11.958;2024-02-21T09:46:36;10.20;99.90
7192;DHT22;3637;51.494;11.958;2024-02-21T09:49:41;10.60;99.90
7192;DHT22;3637;51.494;11.958;2024-02-21T09:52:46;10.30;99.90
7192;DHT22;3637;51.494;11.958;2024-02-21T09:55:51;10.50;99.90
7192;DHT22;3637;51.494;11.958;2024-02-21T09:58:55;10.50;99.90
7192;DHT22;3637;51.494;11.958;2024-02-21T10:01:59;10.50;99.90
7192;DHT22;3637;51.494;11.958;2024-02-21T10:05:04;11.10;99.90
7192;DHT22;3637;51.494;11.958;2024-02-21T10:08:14;10.90;99.90
7192;DHT22;3637;51.494;11.958;2024-02-21T10:11:22;11.00;99.90
7192;DHT22;3637;51.494;11.958;2024-02-21T10:14:24;11.00;99.90
7192;DHT22;3637;51.494;11.958;2024-02-21T10:17:27;11.00;99.90
7192;DHT22;3637;51.494;11.958;2024-02-21T10:20:30;11.10;99.90
7192;DHT22;3637;51.494;11.958;2024-02-21T10:23:49;11.30;99.90
7192;DHT22;3637;51.494;11.958;2024-02-21T10:27:01;11.30;99.90
7192;DHT22;3637;51.494;11.958;2024-02-21T10:30:16;10.90;99.90
7192;DHT22;3637;51.494;11.958;2024-02-21T10:33:22;11.30;99.90
7192;DHT22;3637;51.494;11.958;2024-02-21T10:36:30;11.50;99.90
7192;DHT22;3637;51.494;11.958;2024-02-21T10:39:41;11.70;99.90
7192;DHT22;3637;51.494;11.958;2024-02-21T10:42:46;10.90;99.90
7192;DHT22;3637;51.494;11.958;2024-02-21T10:45:49;11.30;99.90
7192;DHT22;3637;51.494;11.958;2024-02-21T10:49:03;11.70;99.90
7192;DHT22;3637;51.494;11.958;2024-02-21T10:52:21;11.50;99.90
7192;DHT22;3637;51.494;11.958;2024-02-21T10:55:38;11.90;99.90
7192;DHT22;3637;51.494;11.958;2024-02-21T10:58:42;12.20;99.90
7192;DHT22;3637;51.494;11.958;2024-02-21T11:01:44;11.90;99.90
7192;DHT22;3637;51.494;11.958;2024-02-21T11:04:47;11.60;99.90
7192;DHT22;3637;51.494;11.958;2024-02-21T11:07:49;11.70;99.90
7192;DHT22;3637;51.494;11.958;2024-02-21T11:10:59;11.50;99.90
7192;DHT22;3637;51.494;11.958;2024-02-21T11:14:06;11.70;99.90
7192;DHT22;3637;51.494;11.958;2024-02-21T11:17:19;11.20;99.90
7192;DHT22;3637;51.494;11.958;2024-02-21T11:20:32;11.30;99.90
7192;DHT22;3637;51.494;11.958;2024-02-21T11:23:35;11.50;99.90
7192;DHT22;3637;51.494;11.958;2024-02-21T11:26:40;11.30;99.90
7192;DHT22;3637;51.494;11.958;2024-02-21T11:29:43;11.60;99.90
7192;DHT22;3637;51.494;11.958;2024-02-21T11:32:45;11.70;99.90
7192;DHT22;3637;51.494;11.958;2024-02-21T11:35:47;12.20;99.90
7192;DHT22;3637;51.494;11.958;2024-02-21T11:39:03;12.30;99.90
7192;DHT22;3637;51.494;11.958;2024-02-21T11:42:14;12.20;99.90
7192;DHT22;3637;51.494;11.958;2024-02-21T11:45:20;12.10;99.90
7192;DHT22;3637;51.494;11.958;2024-02-21T11:48:34;12.00;99.90
7192;DHT22;3637;51.494;11.958;2024-02-21T11:51:36;11.90;99.90
7192;DHT22;3637;51.494;11.958;2024-02-21T11:54:41;11.90;99.90
7192;DHT22;3637;51.494;11.958;2024-02-21T11:57:47;12.00;99.90
7192;DHT22;3637;51.494;11.958;2024-02-21T12:01:01;11.80;99.90
7192;DHT22;3637;51.494;11.958;2024-02-21T12:04:06;11.70;99.90
7192;DHT22;3637;51.494;11.958;2024-02-21T12:07:08;11.70;99.90
7192;DHT22;3637;51.494;11.958;2024-02-21T12:10:11;12.00;99.90
7192;DHT22;3637;51.494;11.958;2024-02-21T12:13:14;11.60;99.90
7192;DHT22;3637;51.494;11.958;2024-02-21T12:16:16;11.60;99.90
7192;DHT22;3637;51.494;11.958;2024-02-21T12:19:23;11.80;99.90
7192;DHT22;3637;51.494;11.958;2024-02-21T12:22:28;11.50;99.90
7192;DHT22;3637;51.494;11.958;2024-02-21T12:25:33;11.50;99.90
7192;DHT22;3637;51.494;11.958;2024-02-21T12:28:39;11.60;99.90
7192;DHT22;3637;51.494;11.958;2024-02-21T12:31:42;11.30;99.90
7192;DHT22;3637;51.494;11.958;2024-02-21T12:34:44;11.50;99.90
7192;DHT22;3637;51.494;11.958;2024-02-21T12:37:46;11.30;99.90
7192;DHT22;3637;51.494;11.958;2024-02-21T12:40:48;11.20;99.90
7192;DHT22;3637;51.494;11.958;2024-02-21T12:43:52;11.20;99.90
7192;DHT22;3637;51.494;11.958;2024-02-21T12:46:54;11.70;99.90
7192;DHT22;3637;51.494;11.958;2024-02-21T12:49:57;11.70;99.90
7192;DHT22;3637;51.494;11.958;2024-02-21T12:53:00;11.90;99.90
7192;DHT22;3637;51.494;11.958;2024-02-21T12:56:03;12.00;99.90
7192;DHT22;3637;51.494;11.958;2024-02-21T12:59:13;11.80;99.90
7192;DHT22;3637;51.494;11.958;2024-02-21T13:02:20;11.70;99.90
7192;DHT22;3637;51.494;11.958;2024-02-21T13:05:22;11.70;99.90
7192;DHT22;3637;51.494;11.958;2024-02-21T13:08:25;12.70;99.90
7192;DHT22;3637;51.494;11.958;2024-02-21T13:11:28;12.30;99.90
7192;DHT22;3637;51.494;11.958;2024-02-21T13:14:35;12.20;99.90
7192;DHT22;3637;51.494;11.958;2024-02-21T13:17:39;12.30;99.90
7192;DHT22;3637;51.494;11.958;2024-02-21T13:20:41;12.90;99.90
7192;DHT22;3637;51.494;11.958;2024-02-21T13:23:43;12.70;99.90
7192;DHT22;3637;51.494;11.958;2024-02-21T13:26:48;12.10;99.90
7192;DHT22;3637;51.494;11.958;2024-02-21T13:29:53;12.30;99.90
7192;DHT22;3637;51.494;11.958;2024-02-21T13:32:57;12.10;99.90
7192;DHT22;3637;51.494;11.958;2024-02-21T13:36:00;12.70;99.90
7192;DHT22;3637;51.494;11.958;2024-02-21T13:39:07;13.20;99.90
7192;DHT22;3637;51.494;11.958;2024-02-21T13:42:13;12.70;99.90
7192;DHT22;3637;51.494;11.958;2024-02-21T13:45:23;12.80;99.90
7192;DHT22;3637;51.494;11.958;2024-02-21T13:48:26;12.60;99.90
7192;DHT22;3637;51.494;11.958;2024-02-21T13:51:30;12.60;99.90
7192;DHT22;3637;51.494;11.958;2024-02-21T13:54:32;12.60;99.90
7192;DHT22;3637;51.494;11.958;2024-02-21T13:57:35;12.70;99.90
7192;DHT22;3637;51.494;11.958;2024-02-21T14:00:43;12.60;99.90
7192;DHT22;3637;51.494;11.958;2024-02-21T14:03:47;12.60;99.90
7192;DHT22;3637;51.494;11.958;2024-02-21T14:06:59;12.60;99.90
7192;DHT22;3637;51.494;11.958;2024-02-21T14:10:12;12.60;99.90
7192;DHT22;3637;51.494;11.958;2024-02-21T14:13:14;12.50;99.90
7192;DHT22;3637;51.494;11.958;2024-02-21T14:16:28;12.60;99.90
7192;DHT22;3637;51.494;11.958;2024-02-21T14:19:31;11.90;99.90
7192;DHT22;3637;51.494;11.958;2024-02-21T14:22:36;12.30;99.90
7192;DHT22;3637;51.494;11.958;2024-02-21T14:25:41;12.30;99.90
7192;DHT22;3637;51.494;11.958;2024-02-21T14:28:43;12.30;99.90
7192;DHT22;3637;51.494;11.958;2024-02-21T14:31:47;12.20;99.90
7192;DHT22;3637;51.494;11.958;2024-02-21T14:34:54;12.10;99.90
7192;DHT22;3637;51.494;11.958;2024-02-21T14:37:59;12.20;99.90
7192;DHT22;3637;51.494;11.958;2024-02-21T14:41:03;12.10;99.90
7192;DHT22;3637;51.494;11.958;2024-02-21T14:44:10;12.20;99.90
7192;DHT22;3637;51.494;11.958;2024-02-21T14:47:18;12.20;99.90
7192;DHT22;3637;51.494;11.958;2024-02-21T14:50:21;12.30;99.90
7192;DHT22;3637;51.494;11.958;2024-02-21T14:53:27;12.20;99.90
7192;DHT22;3637;51.494;11.958;2024-02-21T14:56:32;12.10;99.90
7192;DHT22;3637;51.494;11.958;2024-02-21T14:59:37;12.20;99.90
7192;DHT22;3637;51.494;11.958;2024-02-21T15:02:44;12.40;99.90
7192;DHT22;3637;51.494;11.958;2024-02-21T15:05:47;12.30;99.90
7192;DHT22;3637;51.494;11.958;2024-02-21T15:08:51;12.30;99.90
7192;DHT22;3637;51.494;11.958;2024-02-21T15:11:53;12.40;99.90
7192;DHT22;3637;51.494;11.958;2024-02-21T15:14:56;12.30;99.90
7192;DHT22;3637;51.494;11.958;2024-02-21T15:18:00;12.10;99.90
7192;DHT22;3637;51.494;11.958;2024-02-21T15:21:05;12.10;99.90
7192;DHT22;3637;51.494;11.958;2024-02-21T15:24:11;12.10;99.90
7192;DHT22;3637;51.494;11.958;2024-02-21T15:27:16;12.10;99.90
7192;DHT22;3637;51.494;11.958;2024-02-21T15:30:22;12.10;99.90
7192;DHT22;3637;51.494;11.958;2024-02-21T15:33:32;12.10;99.90
7192;DHT22;3637;51.494;11.958;2024-02-21T15:36:39;12.20;99.90
7192;DHT22;3637;51.494;11.958;2024-02-21T15:39:41;12.00;99.90
7192;DHT22;3637;51.494;11.958;2024-02-21T15:42:46;11.80;99.90
7192;DHT22;3637;51.494;11.958;2024-02-21T15:45:48;12.00;99.90
7192;DHT22;3637;51.494;11.958;2024-02-21T15:48:54;12.00;99.90
7192;DHT22;3637;51.494;11.958;2024-02-21T15:51:58;11.80;99.90
7192;DHT22;3637;51.494;11.958;2024-02-21T15:55:00;11.80;99.90
7192;DHT22;3637;51.494;11.958;2024-02-21T15:58:06;11.70;99.90
7192;DHT22;3637;51.494;11.958;2024-02-21T16:01:11;11.70;99.90
7192;DHT22;3637;51.494;11.958;2024-02-21T16:04:19;11.70;99.90
7192;DHT22;3637;51.494;11.958;2024-02-21T16:07:26;11.70;99.90
7192;DHT22;3637;51.494;11.958;2024-02-21T16:10:32;11.40;99.90
7192;DHT22;3637;51.494;11.958;2024-02-21T16:13:37;11.20;99.90
7192;DHT22;3637;51.494;11.958;2024-02-21T16:16:45;11.20;99.90
7192;DHT22;3637;51.494;11.958;2024-02-21T16:20:01;11.20;99.90
7192;DHT22;3637;51.494;11.958;2024-02-21T16:23:04;11.10;99.90
7192;DHT22;3637;51.494;11.958;2024-02-21T16:26:11;11.10;99.90
7192;DHT22;3637;51.494;11.958;2024-02-21T16:29:18;10.90;99.90
7192;DHT22;3637;51.494;11.958;2024-02-21T16:32:23;11.30;99.90
7192;DHT22;3637;51.494;11.958;2024-02-21T16:35:32;11.20;99.90
7192;DHT22;3637;51.494;11.958;2024-02-21T16:38:37;10.60;99.90
7192;DHT22;3637;51.494;11.958;2024-02-21T16:41:41;11.00;99.90
7192;DHT22;3637;51.494;11.958;2024-02-21T16:44:46;11.00;99.90
7192;DHT22;3637;51.494;11.958;2024-02-21T16:47:53;10.90;99.90
7192;DHT22;3637;51.494;11.958;2024-02-21T16:51:09;11.50;99.90
7192;DHT22;3637;51.494;11.958;2024-02-21T16:54:15;10.80;99.90
7192;DHT22;3637;51.494;11.958;2024-02-21T16:57:23;10.70;99.90
7192;DHT22;3637;51.494;11.958;2024-02-21T17:00:30;10.60;99.90
7192;DHT22;3637;51.494;11.958;2024-02-21T17:03:36;10.60;99.90
7192;DHT22;3637;51.494;11.958;2024-02-21T17:06:58;10.80;99.90
7192;DHT22;3637;51.494;11.958;2024-02-21T17:10:04;10.80;99.90
7192;DHT22;3637;51.494;11.958;2024-02-21T17:13:07;10.40;99.90
7192;DHT22;3637;51.494;11.958;2024-02-21T17:16:13;10.50;99.90
7192;DHT22;3637;51.494;11.958;2024-02-21T17:19:16;10.30;99.90
7192;DHT22;3637;51.494;11.958;2024-02-21T17:22:22;9.70;99.90
7192;DHT22;3637;51.494;11.958;2024-02-21T17:25:27;10.40;99.90
7192;DHT22;3637;51.494;11.958;2024-02-21T17:28:32;10.50;99.90
7192;DHT22;3637;51.494;11.958;2024-02-21T17:31:36;10.30;99.90
7192;DHT22;3637;51.494;11.958;2024-02-21T17:34:40;10.30;99.90
7192;DHT22;3637;51.494;11.958;2024-02-21T17:37:47;10.70;99.90
7192;DHT22;3637;51.494;11.958;2024-02-21T17:40:50;10.50;99.90
7192;DHT22;3637;51.494;11.958;2024-02-21T17:43:54;10.40;99.90
7192;DHT22;3637;51.494;11.958;2024-02-21T17:46:58;10.60;99.90
7192;DHT22;3637;51.494;11.958;2024-02-21T17:50:00;10.20;99.90
7192;DHT22;3637;51.494;11.958;2024-02-21T17:53:19;10.50;99.90
7192;DHT22;3637;51.494;11.958;2024-02-21T17:56:28;10.20;99.90
7192;DHT22;3637;51.494;11.958;2024-02-21T17:59:34;10.10;99.90
7192;DHT22;3637;51.494;11.958;2024-02-21T18:02:41;10.30;99.90
7192;DHT22;3637;51.494;11.958;2024-02-21T18:05:47;10.30;99.90
7192;DHT22;3637;51.494;11.958;2024-02-21T18:08:56;10.20;99.90
7192;DHT22;3637;51.494;11.958;2024-02-21T18:12:17;10.60;99.90
7192;DHT22;3637;51.494;11.958;2024-02-21T18:15:21;10.40;99.90
7192;DHT22;3637;51.494;11.958;2024-02-21T18:18:26;10.00;99.90
7192;DHT22;3637;51.494;11.958;2024-02-21T18:21:35;10.30;99.90
7192;DHT22;3637;51.494;11.958;2024-02-21T18:24:43;10.20;99.90
7192;DHT22;3637;51.494;11.958;2024-02-21T18:27:51;10.20;99.90
7192;DHT22;3637;51.494;11.958;2024-02-21T18:30:54;10.10;99.90
7192;DHT22;3637;51.494;11.958;2024-02-21T18:34:00;10.20;99.90
7192;DHT22;3637;51.494;11.958;2024-02-21T18:37:05;10.20;99.90
7192;DHT22;3637;51.494;11.958;2024-02-21T18:40:12;10.20;99.90
7192;DHT22;3637;51.494;11.958;2024-02-21T18:43:15;10.10;99.90
7192;DHT22;3637;51.494;11.958;2024-02-21T18:46:17;10.10;99.90
7192;DHT22;3637;51.494;11.958;2024-02-21T18:49:22;10.00;99.90
7192;DHT22;3637;51.494;11.958;2024-02-21T18:52:26;10.20;99.90
7192;DHT22;3637;51.494;11.958;2024-02-21T18:55:32;10.10;99.90
7192;DHT22;3637;51.494;11.958;2024-02-21T18:58:36;9.40;99.90
7192;DHT22;3637;51.494;11.958;2024-02-21T19:01:43;10.70;99.90
7192;DHT22;3637;51.494;11.958;2024-02-21T19:04:54;10.00;99.90
7192;DHT22;3637;51.494;11.958;2024-02-21T19:08:07;10.00;99.90
7192;DHT22;3637;51.494;11.958;2024-02-21T19:11:23;9.90;99.90
7192;DHT22;3637;51.494;11.958;2024-02-21T19:14:26;9.90;99.90
7192;DHT22;3637;51.494;11.958;2024-02-21T19:17:31;9.80;99.90
7192;DHT22;3637;51.494;11.958;2024-02-21T19:20:35;9.80;99.90
7192;DHT22;3637;51.494;11.958;2024-02-21T19:23:38;10.00;99.90
7192;DHT22;3637;51.494;11.958;2024-02-21T19:26:43;10.50;99.90
7192;DHT22;3637;51.494;11.958;2024-02-21T19:29:50;9.90;99.90
7192;DHT22;3637;51.494;11.958;2024-02-21T19:32:54;10.20;99.90
7192;DHT22;3637;51.494;11.958;2024-02-21T19:35:57;9.90;99.90
7192;DHT22;3637;51.494;11.958;2024-02-21T19:39:07;9.80;99.90
7192;DHT22;3637;51.494;11.958;2024-02-21T19:42:15;9.80;99.90
7192;DHT22;3637;51.494;11.958;2024-02-21T19:45:21;9.90;99.90
7192;DHT22;3637;51.494;11.958;2024-02-21T19:48:28;9.90;99.90
7192;DHT22;3637;51.494;11.958;2024-02-21T19:51:31;9.90;99.90
7192;DHT22;3637;51.494;11.958;2024-02-21T19:54:37;10.20;99.90
7192;DHT22;3637;51.494;11.958;2024-02-21T19:57:50;9.90;99.90